createdAt,value
2019-06-10T00:02:12.291Z,101268.30
2019-06-10T00:07:18.259Z,101269.69
2019-06-10T00:12:24.235Z,101260.36
2019-06-10T00:17:31.413Z,101268.01
2019-06-10T00:22:37.810Z,101254.84
2019-06-10T00:27:43.793Z,101244.59
2019-06-10T00:32:51.595Z,101230.17
2019-06-10T00:37:57.361Z,101227.91
2019-06-10T00:43:05.284Z,101220.13
2019-06-10T00:48:24.238Z,101222.09
2019-06-10T00:53:21.149Z,101231.11
2019-06-10T00:58:27.493Z,101223.02
2019-06-10T01:03:33.563Z,101216.37
2019-06-10T01:08:40.570Z,101209.32
2019-06-10T01:13:46.530Z,101205.97
2019-06-10T01:18:53.613Z,101202.81
2019-06-10T01:24:01.261Z,101203.73
2019-06-10T01:29:07.689Z,101187.61
2019-06-10T01:34:15.106Z,101189.67
2019-06-10T01:39:22.607Z,101193.13
2019-06-10T01:44:30.821Z,101188.01
2019-06-10T01:49:36.214Z,101180.99
2019-06-10T01:54:42.186Z,101184.72
2019-06-10T01:59:50.728Z,101181.76
2019-06-10T02:04:55.976Z,101177.84
2019-06-10T02:10:02.039Z,101166.43
2019-06-10T02:15:10.056Z,101162.89
2019-06-10T02:20:18.427Z,101163.92
2019-06-10T02:25:24.557Z,101165.85
2019-06-10T02:30:41.671Z,101167.55
2019-06-10T02:35:44.332Z,101167.01
2019-06-10T02:40:45.652Z,101166.02
2019-06-10T02:45:53.035Z,101164.72
2019-06-10T02:51:03.730Z,101165.41
2019-06-10T02:56:12.636Z,101168.47
2019-06-10T03:01:19.887Z,101164.77
2019-06-10T03:06:34.605Z,101152.29
2019-06-10T03:11:37.324Z,101143.26
2019-06-10T03:16:45.619Z,101136.37
2019-06-10T03:21:52.167Z,101133.13
2019-06-10T03:26:58.330Z,101119.77
2019-06-10T03:32:05.036Z,101121.16
2019-06-10T03:37:12.927Z,101104.98
2019-06-10T03:42:19.005Z,101116.08
2019-06-10T03:47:27.047Z,101124.05
2019-06-10T03:52:32.574Z,101114.06
2019-06-10T03:57:38.455Z,101112.95
2019-06-10T04:02:44.323Z,101114.87
2019-06-10T04:07:52.594Z,101113.53
2019-06-10T04:12:57.797Z,101118.77
2019-06-10T04:18:04.085Z,101121.02
2019-06-10T04:23:12.140Z,101115.55
2019-06-10T04:28:17.812Z,101121.22
2019-06-10T04:33:25.798Z,101106.92
2019-06-10T04:38:32.828Z,101095.47
2019-06-10T04:43:39.168Z,101081.84
2019-06-10T04:48:45.276Z,101080.04
2019-06-10T04:53:52.429Z,101078.08
2019-06-10T04:58:59.134Z,101076.30
2019-06-10T05:04:05.495Z,101076.88
2019-06-10T05:09:12.411Z,101084.94
2019-06-10T05:14:19.370Z,101083.98
2019-06-10T05:19:26.412Z,101090.70
2019-06-10T05:24:34.420Z,101085.05
2019-06-10T05:29:42.218Z,101085.91
2019-06-10T05:34:48.528Z,101079.17
2019-06-10T05:39:54.629Z,101066.54
2019-06-10T05:45:03.119Z,101063.73
2019-06-10T05:50:10.019Z,101066.98
2019-06-10T05:55:16.472Z,101057.94
2019-06-10T06:00:23.469Z,101044.03
2019-06-10T06:05:30.219Z,101033.50
2019-06-10T06:10:36.123Z,101038.56
2019-06-10T06:15:42.448Z,101032.75
2019-06-10T06:20:47.579Z,101029.28
2019-06-10T06:25:53.302Z,101013.30
2019-06-10T06:30:58.338Z,101011.47
2019-06-10T06:36:03.755Z,101020.70
2019-06-10T06:41:10.120Z,101019.40
2019-06-10T06:46:15.427Z,101013.66
2019-06-10T06:51:33.640Z,101007.69
2019-06-10T06:56:28.788Z,101009.95
2019-06-10T07:01:36.455Z,100999.11
2019-06-10T07:06:43.209Z,100990.64
2019-06-10T07:11:48.667Z,100993.39
2019-06-10T07:16:53.821Z,100979.28
2019-06-10T07:22:09.689Z,100969.88
2019-06-10T07:27:06.534Z,100970.06
2019-06-10T07:32:12.410Z,100966.28
2019-06-10T07:37:17.454Z,100964.95
2019-06-10T07:42:22.960Z,100956.28
2019-06-10T07:47:28.130Z,100951.66
2019-06-10T07:52:34.700Z,100942.61
2019-06-10T07:57:42.633Z,100939.43
2019-06-10T08:02:46.937Z,100932.77
2019-06-10T08:07:54.723Z,100931.51
2019-06-10T08:12:59.516Z,100923.43
2019-06-10T08:18:05.092Z,100922.34
2019-06-10T08:23:12.498Z,100918.41
2019-06-10T08:28:17.459Z,100911.02
2019-06-10T08:33:23.043Z,100909.05
2019-06-10T08:38:28.423Z,100901.64
2019-06-10T08:43:33.572Z,100905.33
2019-06-10T08:48:39.044Z,100889.13
2019-06-10T08:53:47.964Z,100883.61
2019-06-10T08:58:53.811Z,100878.36
2019-06-10T09:03:58.001Z,100878.79
2019-06-10T09:09:03.523Z,100876.25
2019-06-10T09:14:09.604Z,100856.74
2019-06-10T09:19:14.646Z,100852.16
2019-06-10T09:24:22.162Z,100842.89
2019-06-10T09:29:26.179Z,100837.67
2019-06-10T09:34:33.025Z,100832.75
2019-06-10T09:39:37.863Z,100825.00
2019-06-10T09:44:46.764Z,100814.51
2019-06-10T09:49:51.400Z,100816.37
2019-06-10T09:54:57.193Z,100808.67
2019-06-10T10:00:04.068Z,100803.02
2019-06-10T10:05:09.965Z,100808.16
2019-06-10T10:10:18.349Z,100800.09
2019-06-10T10:15:30.548Z,100806.05
2019-06-10T10:20:30.187Z,100789.98
2019-06-10T10:25:35.232Z,100784.66
2019-06-10T10:30:42.529Z,100761.88
2019-06-10T10:35:48.011Z,100756.13
2019-06-10T10:40:58.470Z,100751.69
2019-06-10T10:46:05.279Z,100741.16
2019-06-10T10:51:07.095Z,100744.31
2019-06-10T10:56:12.829Z,100737.60
2019-06-10T11:01:18.258Z,100731.28
2019-06-10T11:06:23.519Z,100736.33
2019-06-10T11:11:28.910Z,100721.14
2019-06-10T11:16:33.865Z,100717.42
2019-06-10T11:21:38.917Z,100709.13
2019-06-10T11:26:45.739Z,100717.10
2019-06-10T11:31:53.706Z,100702.88
2019-06-10T11:36:58.359Z,100681.63
2019-06-10T11:42:03.976Z,100690.36
2019-06-10T11:47:09.163Z,100670.95
2019-06-10T11:52:14.146Z,100670.63
2019-06-10T11:57:19.125Z,100663.01
2019-06-10T12:02:24.177Z,100663.25
2019-06-10T12:07:29.121Z,100652.02
2019-06-10T12:12:34.169Z,100643.77
2019-06-10T12:17:46.884Z,100637.70
2019-06-10T12:22:46.927Z,100662.44
2019-06-10T12:27:55.849Z,100636.58
2019-06-10T12:32:59.503Z,100623.69
2019-06-10T12:38:06.353Z,100610.52
2019-06-10T12:43:12.658Z,100608.30
2019-06-10T12:48:17.808Z,100600.30
2019-06-10T12:53:23.080Z,100598.14
2019-06-10T12:58:28.418Z,100581.65
2019-06-10T13:03:33.997Z,100573.16
2019-06-10T13:08:39.139Z,100576.70
2019-06-10T13:14:56.251Z,100568.53
2019-06-10T13:20:06.189Z,100562.36
2019-06-10T13:25:13.358Z,100555.41
2019-06-10T13:30:18.709Z,100547.64
2019-06-10T13:35:24.787Z,100550.65
2019-06-10T13:40:31.998Z,100552.59
2019-06-10T13:45:37.433Z,100554.46
2019-06-10T13:50:43.414Z,100538.30
2019-06-10T13:55:52.695Z,100540.16
2019-06-10T14:00:56.896Z,100539.12
2019-06-10T14:06:18.376Z,100534.89
2019-06-10T14:11:13.139Z,100535.06
2019-06-10T14:16:18.184Z,100529.38
2019-06-10T14:21:24.175Z,100520.58
2019-06-10T14:26:37.854Z,100518.37
2019-06-10T14:31:43.885Z,100514.20
2019-06-10T14:36:45.864Z,100514.86
2019-06-10T14:41:52.407Z,100502.88
2019-06-10T14:46:58.512Z,100487.44
2019-06-10T14:52:04.964Z,100475.11
2019-06-10T14:57:13.567Z,100474.17
2019-06-10T15:02:18.701Z,100463.38
2019-06-10T15:07:24.755Z,100459.81
2019-06-10T15:12:32.655Z,100451.41
2019-06-10T15:17:38.540Z,100433.87
2019-06-10T15:22:44.671Z,100420.70
2019-06-10T15:27:52.693Z,100419.64
2019-06-10T15:32:58.186Z,100432.75
2019-06-10T15:38:04.306Z,100426.55
2019-06-10T15:43:20.776Z,100417.72
2019-06-10T15:48:25.144Z,100418.20
2019-06-10T15:53:29.546Z,100410.27
2019-06-10T15:58:39.160Z,100401.47
2019-06-10T16:03:45.335Z,100387.55
2019-06-10T16:08:52.333Z,100372.56
2019-06-10T16:13:58.551Z,100371.19
2019-06-10T16:19:04.788Z,100361.91
2019-06-10T16:24:13.143Z,100352.33
2019-06-10T16:29:19.062Z,100354.06
2019-06-10T16:34:28.871Z,100342.19
2019-06-10T16:39:32.910Z,100353.61
2019-06-10T16:44:38.926Z,100348.26
2019-06-10T16:49:44.959Z,100345.73
2019-06-10T16:54:52.606Z,100342.36
2019-06-10T16:59:58.738Z,100344.66
2019-06-10T17:05:05.729Z,100343.34
2019-06-10T17:10:12.833Z,100340.64
2019-06-10T17:15:19.086Z,100341.72
2019-06-10T17:20:26.426Z,100330.20
2019-06-10T17:25:33.788Z,100320.05
2019-06-10T17:30:38.700Z,100308.55
2019-06-10T17:35:43.995Z,100300.31
2019-06-10T17:40:49.135Z,100294.02
2019-06-10T17:45:54.163Z,100283.31
2019-06-10T17:50:59.171Z,100275.92
2019-06-10T17:56:04.280Z,100259.46
2019-06-10T18:01:09.310Z,100248.98
2019-06-10T18:06:14.384Z,100261.30
2019-06-10T18:11:19.373Z,100263.47
2019-06-10T18:16:24.595Z,100265.91
2019-06-10T18:21:30.484Z,100274.34
2019-06-10T18:26:37.803Z,100266.36
2019-06-10T18:31:43.128Z,100270.70
2019-06-10T18:36:48.268Z,100281.92
2019-06-10T18:41:53.319Z,100289.34
2019-06-10T18:46:58.361Z,100280.85
2019-06-10T18:52:03.448Z,100278.86
2019-06-10T18:57:08.466Z,100285.14
2019-06-10T19:02:13.406Z,100281.55
2019-06-10T19:07:18.451Z,100297.33
2019-06-10T19:12:23.505Z,100300.63
2019-06-10T19:17:29.478Z,100309.06
2019-06-10T19:22:36.333Z,100306.82
2019-06-10T19:27:44.275Z,100325.09
2019-06-10T19:32:48.404Z,100324.18
2019-06-10T19:37:53.519Z,100314.20
2019-06-10T19:42:58.509Z,100309.16
2019-06-10T19:49:44.980Z,100320.09
2019-06-10T19:54:49.983Z,100331.98
2019-06-10T20:00:07.244Z,100345.06
2019-06-10T20:05:02.308Z,100333.22
2019-06-10T20:10:07.944Z,100345.45
2019-06-10T20:15:24.411Z,100348.77
2019-06-10T20:20:29.368Z,100337.25
2019-06-10T20:25:34.402Z,100322.59
2019-06-10T20:30:39.455Z,100311.09
2019-06-10T20:35:45.675Z,100327.14
2019-06-10T20:40:52.997Z,100326.90
2019-06-10T20:45:58.283Z,100314.61
2019-06-10T20:51:03.957Z,100309.54
2019-06-10T20:56:09.001Z,100314.70
2019-06-10T21:01:14.289Z,100320.46
2019-06-10T21:06:22.411Z,100329.23
2019-06-10T21:11:27.330Z,100327.02
2019-06-10T21:16:32.368Z,100333.77
2019-06-10T21:21:37.361Z,100343.52
2019-06-10T21:26:43.862Z,100337.71
2019-06-10T21:31:50.443Z,100344.14
2019-06-10T21:36:56.053Z,100342.10
2019-06-10T21:42:02.337Z,100341.89
2019-06-10T21:47:07.481Z,100354.95
2019-06-10T21:52:12.936Z,100341.38
2019-06-10T21:57:18.087Z,100356.50
2019-06-10T22:02:23.168Z,100359.45
2019-06-10T22:07:28.388Z,100361.08
2019-06-10T22:12:33.415Z,100357.73
2019-06-10T22:17:38.455Z,100364.16
2019-06-10T22:22:44.435Z,100362.45
2019-06-10T22:27:50.048Z,100363.88
2019-06-10T22:32:57.872Z,100371.18
2019-06-10T22:38:02.582Z,100373.78
2019-06-10T22:43:07.838Z,100374.47
2019-06-10T22:48:13.084Z,100375.77
2019-06-10T22:58:23.759Z,100376.93
2019-06-10T23:03:29.050Z,100369.64
2019-06-10T23:08:34.099Z,100367.20
2019-06-10T23:13:39.159Z,100361.27
2019-06-10T23:18:44.208Z,100357.95
2019-06-10T23:23:49.466Z,100361.40
2019-06-10T23:28:56.033Z,100363.00
2019-06-10T23:34:02.272Z,100356.20
2019-06-10T23:39:07.466Z,100296.97
2019-06-10T23:44:12.412Z,100346.81
2019-06-10T23:49:17.465Z,100350.58
2019-06-10T23:54:22.972Z,100339.06
2019-06-10T23:59:27.967Z,100327.23
